Time;durP1;ratioP1;P1;durP2;ratioP2;P2;SDS_P1;SDS_P2;PMS_P1;PMS_P2;Temp;Humidity;BMP_temperature;BMP_pressure;BME280_temperature;BME280_humidity;BME280_pressure;Samples;Min_cycle;Max_cycle;Signal;HPM_P1;HPM_P2
2022/09/25 00:00:59;;;;;;;87.70;49.88;;;12.10;99.90;;;;;;5030975;28;20054;-79
2022/09/25 00:03:30;;;;;;;84.78;50.72;;;11.90;99.90;;;;;;5013993;28;20040;-79
2022/09/25 00:06:05;;;;;;;89.97;48.17;;;12.00;99.90;;;;;;5015599;28;20030;-80
2022/09/25 00:08:32;;;;;;;88.18;50.00;;;12.00;99.90;;;;;;5019181;28;20045;-80
2022/09/25 00:11:03;;;;;;;82.57;48.60;;;12.00;99.90;;;;;;5019790;28;20064;-79
2022/09/25 00:13:30;;;;;;;90.97;50.72;;;11.90;99.90;;;;;;5020137;28;20049;-79
2022/09/25 00:15:58;;;;;;;90.85;51.17;;;12.00;99.90;;;;;;5001528;28;20091;-79
2022/09/25 00:21:13;;;;;;;82.80;45.85;;;11.90;99.90;;;;;;5011141;28;20033;-80
2022/09/25 00:23:43;;;;;;;82.10;47.28;;;11.90;99.90;;;;;;5013664;28;20045;-80
2022/09/25 00:26:12;;;;;;;83.57;48.40;;;11.90;99.90;;;;;;5012809;28;20052;-79
2022/09/25 00:28:39;;;;;;;77.00;46.80;;;11.90;99.90;;;;;;5014321;28;20109;-80
2022/09/25 00:31:08;;;;;;;76.82;46.13;;;12.00;99.90;;;;;;5031351;28;20045;-80
2022/09/25 00:33:36;;;;;;;78.18;44.80;;;12.00;99.90;;;;;;5011179;28;20068;-80
2022/09/25 00:36:05;;;;;;;84.05;47.22;;;11.90;99.90;;;;;;5023714;28;20029;-80
2022/09/25 00:38:34;;;;;;;77.15;44.63;;;11.90;99.90;;;;;;5026589;28;20042;-79
2022/09/25 00:41:02;;;;;;;77.88;46.38;;;11.80;99.90;;;;;;5002431;28;20088;-80
2022/09/25 00:43:50;;;;;;;75.00;46.15;;;11.80;99.90;;;;;;4990588;28;20042;-79
2022/09/25 00:46:16;;;;;;;73.40;45.00;;;11.70;99.90;;;;;;5032175;28;20037;-80
2022/09/25 00:49:05;;;;;;;86.15;49.15;;;11.80;99.90;;;;;;5005974;28;20300;-80
2022/09/25 00:51:44;;;;;;;76.18;46.10;;;11.70;99.90;;;;;;4999482;28;20048;-80
2022/09/25 00:54:22;;;;;;;81.07;48.03;;;11.80;99.90;;;;;;5000145;28;20050;-80
2022/09/25 00:56:51;;;;;;;82.28;47.20;;;11.80;99.90;;;;;;4982213;28;20595;-80
2022/09/25 00:59:21;;;;;;;80.07;48.22;;;11.80;99.90;;;;;;4978729;28;20064;-80
2022/09/25 01:01:48;;;;;;;84.50;48.78;;;11.80;99.90;;;;;;4999352;28;20044;-79
2022/09/25 01:04:15;;;;;;;84.07;50.33;;;11.90;99.90;;;;;;4995403;28;20065;-80
2022/09/25 01:06:43;;;;;;;90.15;51.83;;;11.90;99.90;;;;;;4987461;28;20041;-80
2022/09/25 01:09:10;;;;;;;88.97;50.80;;;12.00;99.90;;;;;;4981558;28;20042;-79
2022/09/25 01:11:37;;;;;;;85.60;49.75;;;12.10;99.90;;;;;;5000816;28;20389;-79
2022/09/25 01:14:06;;;;;;;87.97;49.38;;;12.00;99.90;;;;;;5000916;28;20034;-79
2022/09/25 01:16:52;;;;;;;80.80;45.97;;;11.90;99.90;;;;;;5018524;28;20141;-79
2022/09/25 01:19:31;;;;;;;82.00;48.05;;;11.90;99.90;;;;;;5015680;28;20058;-80
2022/09/25 01:22:25;;;;;;;81.30;48.58;;;12.00;99.90;;;;;;4998689;28;20072;-80
2022/09/25 01:25:13;;;;;;;83.65;48.28;;;11.90;99.90;;;;;;4972554;28;20057;-79
2022/09/25 01:27:53;;;;;;;80.30;48.10;;;12.00;99.90;;;;;;4996609;28;21294;-79
2022/09/25 01:30:20;;;;;;;84.22;47.08;;;12.00;99.90;;;;;;4994572;28;20202;-80
2022/09/25 01:33:06;;;;;;;85.80;48.58;;;12.00;99.90;;;;;;4980014;28;20101;-80
2022/09/25 01:35:56;;;;;;;78.70;47.30;;;11.90;99.90;;;;;;5017132;28;20061;-80
2022/09/25 01:38:30;;;;;;;88.00;48.78;;;11.80;99.90;;;;;;4993254;28;20128;-80
2022/09/25 01:41:09;;;;;;;85.72;49.15;;;11.80;99.90;;;;;;4998721;28;20316;-80
2022/09/25 01:43:51;;;;;;;80.13;46.60;;;11.80;99.90;;;;;;5033695;28;20053;-79
2022/09/25 01:46:21;;;;;;;81.43;49.80;;;11.80;99.90;;;;;;5013672;28;20149;-80
2022/09/25 01:48:54;;;;;;;83.75;49.70;;;11.80;99.90;;;;;;4998498;28;20046;-80
2022/09/25 01:51:28;;;;;;;75.07;46.33;;;11.80;99.90;;;;;;4984900;28;20041;-79
2022/09/25 01:54:00;;;;;;;72.40;44.60;;;11.80;99.90;;;;;;4981455;28;20136;-79
2022/09/25 01:57:00;;;;;;;84.32;48.78;;;11.80;99.90;;;;;;4997633;28;20061;-80
2022/09/25 01:59:46;;;;;;;82.22;49.00;;;11.70;99.90;;;;;;4988726;28;20044;-80
2022/09/25 02:02:18;;;;;;;;;;;11.60;99.90;;;;;;4993736;28;20444;-80
2022/09/25 02:05:01;;;;;;;83.57;46.97;;;11.60;99.90;;;;;;4994836;28;19979;-80
2022/09/25 02:07:35;;;;;;;81.70;46.95;;;11.50;99.90;;;;;;4997913;28;20096;-80
2022/09/25 02:10:22;;;;;;;82.10;46.60;;;11.50;99.90;;;;;;4996956;28;20045;-79
2022/09/25 02:12:54;;;;;;;80.40;47.83;;;11.50;99.90;;;;;;5006899;28;20049;-81
2022/09/25 02:15:28;;;;;;;78.35;47.53;;;11.60;99.90;;;;;;4989074;28;20529;-79
2022/09/25 02:21:12;;;;;;;79.13;44.38;;;11.60;99.90;;;;;;5011340;28;20561;-80
2022/09/25 02:23:48;;;;;;;70.32;41.42;;;11.60;99.90;;;;;;4996816;28;20056;-80
2022/09/25 02:26:28;;;;;;;68.80;39.83;;;11.50;99.90;;;;;;5002909;28;20241;-80
2022/09/25 02:28:55;;;;;;;61.83;38.53;;;11.50;99.90;;;;;;5006982;28;20125;-80
2022/09/25 02:31:29;;;;;;;60.53;36.03;;;11.40;99.90;;;;;;5007050;28;20034;-79
2022/09/25 02:33:57;;;;;;;51.90;35.13;;;11.40;99.90;;;;;;4992985;28;20053;-81
2022/09/25 02:36:24;;;;;;;53.38;34.17;;;11.50;99.90;;;;;;5017734;28;20097;-81
2022/09/25 02:38:54;;;;;;;54.05;35.55;;;11.50;99.90;;;;;;4995694;28;20049;-81
2022/09/25 02:41:36;;;;;;;53.08;33.65;;;11.40;99.90;;;;;;4992476;28;20075;-80
2022/09/25 02:44:11;;;;;;;57.47;35.75;;;11.40;99.90;;;;;;5000009;28;20052;-79
2022/09/25 02:46:47;;;;;;;55.50;34.85;;;11.50;99.90;;;;;;4979109;28;20062;-81
2022/09/25 02:49:45;;;;;;;57.47;35.20;;;11.50;99.90;;;;;;5009734;28;20042;-79
2022/09/25 02:52:46;;;;;;;63.53;34.50;;;11.50;99.90;;;;;;4981295;28;20128;-79
2022/09/25 02:55:36;;;;;;;57.17;34.00;;;11.50;99.90;;;;;;4991027;28;20045;-81
2022/09/25 02:58:32;;;;;;;61.38;35.72;;;11.50;99.90;;;;;;5014974;28;20133;-80
2022/09/25 03:01:02;;;;;;;58.88;32.97;;;11.50;99.90;;;;;;5013129;28;20306;-81
2022/09/25 03:03:30;;;;;;;59.65;33.65;;;11.50;99.90;;;;;;4991587;28;20129;-80
2022/09/25 03:05:58;;;;;;;60.80;32.92;;;11.40;99.90;;;;;;4994064;28;20041;-80
2022/09/25 03:08:40;;;;;;;53.30;32.67;;;11.40;99.90;;;;;;4997210;28;20046;-81
2022/09/25 03:11:08;;;;;;;59.13;33.03;;;11.40;99.90;;;;;;4995590;28;20052;-80
2022/09/25 03:13:36;;;;;;;53.42;32.55;;;11.30;99.90;;;;;;4997806;28;20096;-80
2022/09/25 03:16:18;;;;;;;49.35;31.98;;;11.30;99.90;;;;;;5001427;28;20129;-81
2022/09/25 03:18:46;;;;;;;51.47;31.73;;;11.30;99.90;;;;;;4966774;28;20106;-80
2022/09/25 03:21:13;;;;;;;57.00;31.73;;;11.30;99.90;;;;;;4999217;28;20049;-80
2022/09/25 03:23:40;;;;;;;62.63;33.90;;;11.30;99.90;;;;;;5015135;28;20042;-81
2022/09/25 03:26:07;;;;;;;57.60;31.02;;;11.30;99.90;;;;;;4992284;28;20084;-80
2022/09/25 03:28:34;;;;;;;63.28;32.67;;;11.30;99.90;;;;;;5000305;28;20049;-80
2022/09/25 03:31:10;;;;;;;55.40;31.52;;;11.30;99.90;;;;;;4976699;28;20046;-81
2022/09/25 03:33:39;;;;;;;50.80;30.55;;;11.30;99.90;;;;;;5006201;28;20121;-80
2022/09/25 03:36:18;;;;;;;53.72;30.30;;;11.30;99.90;;;;;;5005318;28;20662;-80
2022/09/25 03:38:47;;;;;;;57.65;30.13;;;11.30;99.90;;;;;;5012158;28;20060;-80
2022/09/25 03:41:18;;;;;;;53.80;31.55;;;11.40;99.90;;;;;;4983802;28;20398;-81
2022/09/25 03:43:47;;;;;;;56.30;31.55;;;11.40;99.90;;;;;;5000437;28;20100;-81
2022/09/25 03:46:14;;;;;;;43.60;27.02;;;11.40;99.90;;;;;;5000444;28;20101;-81
2022/09/25 03:48:41;;;;;;;44.03;27.00;;;11.30;99.90;;;;;;5001719;28;20148;-82
2022/09/25 03:51:09;;;;;;;46.28;26.70;;;11.40;99.90;;;;;;5000640;28;20073;-82
2022/09/25 03:53:36;;;;;;;41.42;26.00;;;11.40;99.90;;;;;;5000931;28;20109;-83
2022/09/25 03:56:10;;;;;;;41.20;27.20;;;11.40;99.90;;;;;;5000550;28;20720;-81
2022/09/25 03:58:37;;;;;;;42.50;25.83;;;11.40;99.90;;;;;;5001277;28;20407;-82
2022/09/25 04:01:04;;;;;;;45.38;27.45;;;11.40;99.90;;;;;;5000796;28;20034;-84
2022/09/25 04:03:32;;;;;;;44.47;27.48;;;11.40;99.90;;;;;;4983043;28;20038;-81
2022/09/25 04:06:03;;;;;;;60.70;31.77;;;11.30;99.90;;;;;;4981935;28;20241;-80
2022/09/25 04:08:31;;;;;;;51.25;29.55;;;11.30;99.90;;;;;;5002092;28;20067;-81
2022/09/25 04:10:58;;;;;;;48.67;28.95;;;11.40;99.90;;;;;;5027618;28;20099;-82
2022/09/25 04:13:30;;;;;;;48.60;30.00;;;11.30;99.90;;;;;;5023687;28;20054;-82
2022/09/25 04:15:59;;;;;;;50.83;30.33;;;11.40;99.90;;;;;;5024906;28;20042;-81
2022/09/25 04:18:30;;;;;;;55.17;30.33;;;11.30;99.90;;;;;;4987661;28;20581;-83
2022/09/25 04:20:58;;;;;;;49.35;28.92;;;11.30;99.90;;;;;;5004071;28;20046;-83
2022/09/25 04:23:24;;;;;;;54.58;30.23;;;11.30;99.90;;;;;;5020341;28;20048;-82
2022/09/25 04:25:52;;;;;;;54.20;29.17;;;11.30;99.90;;;;;;5003806;28;20041;-82
2022/09/25 04:28:21;;;;;;;59.92;30.02;;;11.30;99.90;;;;;;5002908;28;20042;-84
2022/09/25 04:30:51;;;;;;;52.95;28.98;;;11.30;99.90;;;;;;5025652;28;20517;-82
2022/09/25 04:36:05;;;;;;;50.00;28.58;;;11.30;99.90;;;;;;5019637;28;20045;-82
2022/09/25 04:38:32;;;;;;;52.22;28.63;;;11.30;99.90;;;;;;5036598;28;20145;-83
2022/09/25 04:41:00;;;;;;;53.15;28.15;;;11.30;99.90;;;;;;5003185;28;20052;-82
2022/09/25 04:43:31;;;;;;;52.42;28.08;;;11.40;99.90;;;;;;4987476;28;20597;-80
2022/09/25 04:46:06;;;;;;;47.92;26.75;;;11.40;99.90;;;;;;5002652;28;20095;-82
2022/09/25 04:48:34;;;;;;;;;;;11.40;99.90;;;;;;4996992;28;20057;-80
2022/09/25 04:51:01;;;;;;;58.95;28.13;;;11.40;99.90;;;;;;5004611;28;20367;-80
2022/09/25 04:53:29;;;;;;;41.35;25.42;;;11.30;99.90;;;;;;4994067;28;20041;-82
2022/09/25 04:56:02;;;;;;;48.70;25.33;;;11.30;99.90;;;;;;4996705;28;20052;-83
2022/09/25 04:58:28;;;;;;;45.45;25.67;;;11.30;99.90;;;;;;5011390;28;20125;-83
2022/09/25 05:00:59;;;;;;;48.15;26.42;;;11.30;99.90;;;;;;4997038;28;20527;-80
2022/09/25 05:03:26;;;;;;;52.67;27.20;;;11.30;99.90;;;;;;4988902;28;20496;-81
2022/09/25 05:05:53;;;;;;;53.67;27.70;;;11.20;99.90;;;;;;4971440;28;20073;-81
2022/09/25 05:08:19;;;;;;;52.05;25.77;;;11.30;99.90;;;;;;4993436;28;20038;-80
2022/09/25 05:10:46;;;;;;;44.42;23.13;;;11.30;99.90;;;;;;4991820;28;20134;-81
2022/09/25 05:13:13;;;;;;;51.25;24.67;;;11.10;99.90;;;;;;4991731;28;20057;-83
2022/09/25 05:15:39;;;;;;;44.40;23.48;;;11.10;99.90;;;;;;4996991;28;20096;-80
2022/09/25 05:18:17;;;;;;;45.28;25.02;;;11.10;99.90;;;;;;4991713;28;20184;-81
2022/09/25 05:20:43;;;;;;;52.85;25.00;;;11.10;99.90;;;;;;5009121;28;20061;-80
2022/09/25 05:23:11;;;;;;;56.67;26.85;;;11.00;99.90;;;;;;5000003;28;20064;-81
2022/09/25 05:25:37;;;;;;;46.08;24.55;;;11.00;99.90;;;;;;4984924;28;20045;-80
2022/09/25 05:28:04;;;;;;;50.30;25.80;;;11.10;99.90;;;;;;4982587;28;20652;-80
2022/09/25 05:30:33;;;;;;;53.75;27.55;;;11.10;99.90;;;;;;4979071;28;20129;-80
2022/09/25 05:33:00;;;;;;;56.45;26.67;;;11.10;99.90;;;;;;4975790;28;20419;-81
2022/09/25 05:35:30;;;;;;;52.47;27.25;;;11.10;99.90;;;;;;4995418;28;20491;-81
2022/09/25 05:37:57;;;;;;;55.83;27.30;;;11.10;99.90;;;;;;4995296;28;20052;-81
2022/09/25 05:40:24;;;;;;;56.38;27.63;;;11.00;99.90;;;;;;4993110;28;20052;-81
2022/09/25 05:42:51;;;;;;;54.97;26.83;;;11.00;99.90;;;;;;4995539;28;20137;-80
2022/09/25 05:45:19;;;;;;;50.90;26.48;;;10.90;99.90;;;;;;4996906;28;20046;-80
2022/09/25 05:47:46;;;;;;;55.88;27.98;;;10.90;99.90;;;;;;4995477;28;20052;-79
2022/09/25 05:50:15;;;;;;;51.17;26.73;;;10.90;99.90;;;;;;4993905;28;20038;-81
2022/09/25 05:52:42;;;;;;;59.47;28.90;;;10.90;99.90;;;;;;4988901;28;20129;-80
2022/09/25 05:55:09;;;;;;;53.97;26.95;;;11.00;99.90;;;;;;4999336;28;20161;-83
2022/09/25 05:57:37;;;;;;;54.03;26.65;;;11.00;99.90;;;;;;4997822;28;20081;-80
2022/09/25 06:00:08;;;;;;;59.70;27.33;;;11.00;99.90;;;;;;4991382;28;20627;-81
2022/09/25 06:02:40;;;;;;;52.42;26.55;;;11.10;99.90;;;;;;4986504;28;20050;-80
2022/09/25 06:05:07;;;;;;;51.97;25.70;;;11.10;99.90;;;;;;4979935;28;20046;-80
2022/09/25 06:07:37;;;;;;;56.42;27.63;;;11.10;99.90;;;;;;5002142;28;20048;-82
2022/09/25 06:10:05;;;;;;;58.55;27.13;;;11.10;99.90;;;;;;4999873;28;20046;-80
2022/09/25 06:12:31;;;;;;;61.55;27.83;;;11.10;99.90;;;;;;4995264;28;20040;-81
2022/09/25 06:14:58;;;;;;;56.05;25.83;;;11.10;99.90;;;;;;4998888;28;20132;-80
2022/09/25 06:17:25;;;;;;;54.60;26.00;;;11.10;99.90;;;;;;4993843;28;20038;-82
2022/09/25 06:19:51;;;;;;;57.67;23.88;;;11.20;99.90;;;;;;4997134;28;20761;-80
2022/09/25 06:22:18;;;;;;;48.25;24.40;;;11.10;99.90;;;;;;4993632;28;20034;-81
2022/09/25 06:24:47;;;;;;;55.63;26.80;;;11.10;99.90;;;;;;4990935;28;20132;-81
2022/09/25 06:27:14;;;;;;;56.70;26.65;;;11.10;99.90;;;;;;5001220;28;20033;-80
2022/09/25 06:29:41;;;;;;;56.22;26.30;;;11.10;99.90;;;;;;5001638;28;20038;-83
2022/09/25 06:32:07;;;;;;;60.67;26.17;;;11.20;99.90;;;;;;4996841;28;20498;-82
2022/09/25 06:34:34;;;;;;;50.22;24.88;;;11.20;99.90;;;;;;4996541;28;20045;-80
2022/09/25 06:37:01;;;;;;;59.83;25.20;;;11.20;99.90;;;;;;4994650;28;20570;-82
2022/09/25 06:39:28;;;;;;;48.13;24.55;;;11.20;99.90;;;;;;4981040;28;20481;-81
2022/09/25 06:41:54;;;;;;;45.70;24.52;;;11.30;99.90;;;;;;4977894;28;20133;-82
2022/09/25 06:44:21;;;;;;;51.10;25.17;;;11.20;99.90;;;;;;5000613;28;20065;-83
2022/09/25 06:46:49;;;;;;;55.58;26.83;;;11.10;99.90;;;;;;4997916;28;20100;-80
2022/09/25 06:49:16;;;;;;;62.55;27.48;;;11.20;99.90;;;;;;5006587;28;20136;-81
2022/09/25 06:51:43;;;;;;;61.22;26.85;;;11.20;99.90;;;;;;4983467;28;20399;-82
2022/09/25 06:54:09;;;;;;;54.45;27.58;;;11.20;99.90;;;;;;4991453;28;20300;-82
2022/09/25 06:56:36;;;;;;;57.10;28.25;;;11.30;99.90;;;;;;4997433;28;20128;-81
2022/09/25 06:59:04;;;;;;;69.45;28.80;;;11.20;99.90;;;;;;4995466;28;20136;-80
2022/09/25 07:01:30;;;;;;;57.28;26.38;;;11.20;99.90;;;;;;5009155;28;20077;-82
2022/09/25 07:03:57;;;;;;;56.58;28.75;;;11.20;99.90;;;;;;4971837;28;20561;-84
2022/09/25 07:06:25;;;;;;;56.55;28.15;;;11.30;99.90;;;;;;4992913;28;20402;-80
2022/09/25 07:08:52;;;;;;;60.13;27.30;;;11.20;99.90;;;;;;5016582;28;20154;-81
2022/09/25 07:11:21;;;;;;;53.05;27.63;;;11.30;99.90;;;;;;4981452;28;20046;-80
2022/09/25 07:13:51;;;;;;;62.55;26.73;;;11.30;99.90;;;;;;5001475;28;20611;-81
2022/09/25 07:16:19;;;;;;;58.67;28.20;;;11.10;99.90;;;;;;5011963;28;20058;-81
2022/09/25 07:18:46;;;;;;;68.38;29.45;;;11.20;99.90;;;;;;4998095;28;20482;-80
2022/09/25 07:21:17;;;;;;;57.08;26.27;;;11.30;99.90;;;;;;4993689;28;20061;-83
2022/09/25 07:23:47;;;;;;;47.38;25.95;;;11.30;99.90;;;;;;4993282;28;20120;-84
2022/09/25 07:26:15;;;;;;;49.05;26.55;;;11.40;99.90;;;;;;4996134;28;20044;-80
2022/09/25 07:28:43;;;;;;;45.17;23.35;;;11.40;99.90;;;;;;4993512;28;20449;-81
2022/09/25 07:31:14;;;;;;;47.10;24.00;;;11.50;99.90;;;;;;4993658;28;20053;-81
2022/09/25 07:33:41;;;;;;;43.78;23.63;;;11.60;99.90;;;;;;4991521;28;20609;-83
2022/09/25 07:36:08;;;;;;;48.72;25.05;;;11.60;99.90;;;;;;4995602;28;20816;-80
2022/09/25 07:38:35;;;;;;;41.55;22.45;;;11.60;99.90;;;;;;4998196;28;20502;-82
2022/09/25 07:41:05;;;;;;;40.78;22.45;;;11.50;99.90;;;;;;4993722;28;20069;-82
2022/09/25 07:43:32;;;;;;;37.45;20.98;;;11.60;99.90;;;;;;4974405;28;20045;-80
2022/09/25 07:46:00;;;;;;;37.38;21.52;;;11.60;99.90;;;;;;5011795;28;20539;-82
2022/09/25 07:48:29;;;;;;;52.20;26.15;;;11.60;99.90;;;;;;4972692;28;20037;-80
2022/09/25 07:51:05;;;;;;;48.22;23.52;;;11.60;99.90;;;;;;5000153;28;20133;-80
2022/09/25 07:53:31;;;;;;;53.28;26.02;;;11.50;99.90;;;;;;5001361;28;20042;-81
2022/09/25 07:56:00;;;;;;;50.63;24.25;;;11.50;99.90;;;;;;4988703;28;20586;-81
2022/09/25 07:58:33;;;;;;;41.47;22.73;;;11.50;99.90;;;;;;4988134;28;20748;-80
2022/09/25 08:01:03;;;;;;;47.30;22.30;;;11.50;99.90;;;;;;5025259;28;20050;-81
2022/09/25 08:03:29;;;;;;;48.35;21.90;;;11.40;99.90;;;;;;4974207;28;20041;-80
2022/09/25 08:06:14;;;;;;;45.55;22.58;;;11.50;99.90;;;;;;4989342;28;20069;-81
2022/09/25 08:08:43;;;;;;;39.35;21.33;;;11.50;99.90;;;;;;4992750;28;20069;-82
2022/09/25 08:11:14;;;;;;;43.13;22.13;;;11.50;99.90;;;;;;4971383;28;20030;-84
2022/09/25 08:13:41;;;;;;;41.28;21.45;;;11.60;99.90;;;;;;4971729;28;20466;-81
2022/09/25 08:16:14;;;;;;;37.55;18.65;;;11.60;99.90;;;;;;4988223;28;20465;-81
2022/09/25 08:18:42;;;;;;;44.15;18.17;;;11.70;99.90;;;;;;5009570;28;20049;-80
2022/09/25 08:21:13;;;;;;;32.47;17.85;;;11.60;99.90;;;;;;4995483;28;20046;-82
2022/09/25 08:23:41;;;;;;;32.72;19.00;;;11.80;99.90;;;;;;4989893;28;20660;-80
2022/09/25 08:26:14;;;;;;;42.65;20.48;;;11.90;99.90;;;;;;4987804;28;20046;-82
2022/09/25 08:28:41;;;;;;;31.23;17.90;;;12.00;99.90;;;;;;4977491;28;20038;-80
2022/09/25 08:31:07;;;;;;;33.65;16.90;;;12.00;99.90;;;;;;4978213;28;20509;-81
2022/09/25 08:33:36;;;;;;;30.27;16.73;;;12.00;99.90;;;;;;4977386;28;20069;-82
2022/09/25 08:36:04;;;;;;;22.00;16.33;;;12.00;99.90;;;;;;4995585;28;20077;-81
2022/09/25 08:38:32;;;;;;;29.77;16.23;;;12.00;99.90;;;;;;5009295;28;20047;-81
2022/09/25 08:41:06;;;;;;;25.98;15.57;;;12.00;99.90;;;;;;5002666;28;20101;-84
2022/09/25 08:43:39;;;;;;;25.00;16.27;;;12.10;99.90;;;;;;4986442;28;20221;-80
2022/09/25 08:49:09;;;;;;;29.23;16.33;;;11.90;99.90;;;;;;4996378;28;20095;-78
2022/09/25 08:51:40;;;;;;;37.03;18.60;;;11.80;99.90;;;;;;4993522;28;20538;-78
2022/09/25 08:54:17;;;;;;;27.17;16.42;;;11.80;99.90;;;;;;4991070;28;20065;-81
2022/09/25 08:56:44;;;;;;;24.85;15.82;;;11.80;99.90;;;;;;4985089;28;20056;-79
2022/09/25 08:59:27;;;;;;;22.08;16.00;;;11.80;99.90;;;;;;5008470;23;20052;-73
2022/09/25 09:02:15;;;;;;;30.38;15.85;;;11.80;99.90;;;;;;4969898;28;20519;-73
2022/09/25 09:04:50;;;;;;;23.20;15.52;;;11.80;99.90;;;;;;4977013;28;20050;-73
2022/09/25 09:07:24;;;;;;;26.45;16.30;;;11.80;99.90;;;;;;4968695;28;20042;-73
2022/09/25 09:10:07;;;;;;;22.30;16.58;;;11.90;99.90;;;;;;4973720;28;20046;-74
2022/09/25 09:12:44;;;;;;;26.90;17.63;;;11.90;99.90;;;;;;4975993;28;20120;-73
2022/09/25 09:15:47;;;;;;;28.42;16.20;;;12.10;99.90;;;;;;4960060;28;20525;-73
2022/09/25 09:18:25;;;;;;;24.60;15.13;;;12.10;99.90;;;;;;4959990;28;20066;-73
2022/09/25 09:20:56;;;;;;;27.25;15.65;;;12.20;99.90;;;;;;4974467;28;20112;-74
2022/09/25 09:23:31;;;;;;;22.58;14.88;;;12.20;99.90;;;;;;4979240;28;20237;-73
2022/09/25 09:25:58;;;;;;;32.65;16.92;;;12.10;99.90;;;;;;4971156;28;20061;-73
2022/09/25 09:28:36;;;;;;;27.13;16.38;;;12.00;99.90;;;;;;4971955;28;20101;-73
2022/09/25 09:31:26;;;;;;;22.45;16.65;;;12.00;99.90;;;;;;4961786;28;20410;-73
2022/09/25 09:34:05;;;;;;;28.63;16.05;;;12.00;99.90;;;;;;4971769;28;20664;-73
2022/09/25 09:36:49;;;;;;;22.90;15.73;;;12.20;99.90;;;;;;4964201;28;20093;-73
2022/09/25 09:39:58;;;;;;;16.73;13.55;;;12.40;99.90;;;;;;4974234;28;20054;-73
2022/09/25 09:42:48;;;;;;;17.95;14.95;;;12.40;99.90;;;;;;4914424;28;20043;-74
2022/09/25 09:45:24;;;;;;;16.67;12.93;;;12.40;99.90;;;;;;4968408;28;20507;-74
2022/09/25 09:47:58;;;;;;;18.75;14.32;;;12.50;99.90;;;;;;4956876;28;20045;-72
2022/09/25 09:50:40;;;;;;;17.40;14.60;;;12.60;99.90;;;;;;4962598;28;20057;-72
2022/09/25 09:53:31;;;;;;;21.20;16.35;;;12.70;99.90;;;;;;4955392;28;20109;-73
2022/09/25 09:56:09;;;;;;;17.83;16.23;;;12.80;99.90;;;;;;4965426;28;20057;-72
2022/09/25 09:58:54;;;;;;;21.90;16.38;;;13.00;99.90;;;;;;4959110;28;20146;-73
2022/09/25 10:01:24;;;;;;;32.40;18.30;;;13.20;99.90;;;;;;4948516;28;20670;-73
2022/09/25 10:04:18;;;;;;;18.77;16.80;;;13.40;99.90;;;;;;4975039;28;20308;-73
2022/09/25 10:06:54;;;;;;;17.48;15.82;;;13.40;99.90;;;;;;4973978;28;20124;-72
2022/09/25 10:09:23;;;;;;;19.48;17.20;;;13.30;99.90;;;;;;4928727;28;20071;-73
2022/09/25 10:11:59;;;;;;;19.45;17.85;;;13.30;99.90;;;;;;4963404;28;20045;-73
2022/09/25 10:14:37;;;;;;;19.95;18.08;;;13.40;99.90;;;;;;4935774;28;20058;-73
2022/09/25 10:17:06;;;;;;;17.88;16.20;;;13.40;99.90;;;;;;4972185;28;20052;-73
2022/09/25 10:19:50;;;;;;;19.52;17.25;;;13.30;99.90;;;;;;4965896;28;20054;-73
2022/09/25 10:22:22;;;;;;;20.83;19.02;;;13.40;99.90;;;;;;4970490;28;20153;-74
2022/09/25 10:24:54;;;;;;;18.67;17.20;;;13.50;99.90;;;;;;4947750;28;20137;-72
2022/09/25 10:27:25;;;;;;;18.65;17.13;;;13.40;99.90;;;;;;4951368;28;20316;-73
2022/09/25 10:30:19;;;;;;;20.60;18.33;;;13.50;99.90;;;;;;4964424;28;20515;-72
2022/09/25 10:33:01;;;;;;;18.38;16.60;;;13.60;99.90;;;;;;4941516;28;20176;-73
2022/09/25 10:35:37;;;;;;;16.90;15.48;;;13.70;99.90;;;;;;4978559;28;20200;-72
2022/09/25 10:38:15;;;;;;;18.63;16.92;;;14.00;99.90;;;;;;4969717;28;20047;-73
2022/09/25 10:40:48;;;;;;;18.25;16.60;;;14.00;99.90;;;;;;4970395;28;20357;-72
2022/09/25 10:43:22;;;;;;;18.48;16.77;;;14.00;99.90;;;;;;4954722;28;20049;-73
2022/09/25 10:46:03;;;;;;;17.67;16.10;;;13.90;99.90;;;;;;4978762;28;20052;-73
2022/09/25 10:51:21;;;;;;;18.98;17.35;;;14.00;99.90;;;;;;4947182;28;21292;-72
2022/09/25 10:53:50;;;;;;;17.77;16.38;;;14.20;99.90;;;;;;4948455;28;20431;-73
2022/09/25 10:56:28;;;;;;;18.63;17.20;;;14.30;99.90;;;;;;4949541;28;20043;-72
2022/09/25 10:59:00;;;;;;;19.60;18.17;;;14.50;99.90;;;;;;4958828;28;20125;-73
2022/09/25 11:01:36;;;;;;;19.83;18.65;;;14.80;99.90;;;;;;4964181;28;20046;-73
2022/09/25 11:04:12;;;;;;;22.75;21.20;;;15.10;99.90;;;;;;4952487;28;20092;-73
2022/09/25 11:06:46;;;;;;;19.05;17.85;;;15.50;99.90;;;;;;4982171;28;20038;-73
2022/09/25 11:09:15;;;;;;;21.10;19.42;;;15.40;99.90;;;;;;4947188;28;20255;-73
2022/09/25 11:11:45;;;;;;;19.75;18.67;;;15.30;99.90;;;;;;4973865;28;20038;-72
2022/09/25 11:14:31;;;;;;;21.23;19.73;;;15.40;99.90;;;;;;4939854;28;20566;-73
2022/09/25 11:17:00;;;;;;;22.48;20.77;;;15.40;99.90;;;;;;4972258;28;20105;-73
2022/09/25 11:19:35;;;;;;;19.92;18.70;;;15.20;99.90;;;;;;4957502;28;20649;-73
2022/09/25 11:22:32;;;;;;;20.67;18.98;;;15.20;99.90;;;;;;4957207;28;20046;-73
2022/09/25 11:25:11;;;;;;;19.15;18.00;;;15.40;99.90;;;;;;4941556;28;20051;-71
2022/09/25 11:27:44;;;;;;;21.88;20.42;;;15.70;99.90;;;;;;4949732;28;20048;-74
2022/09/25 11:30:16;;;;;;;22.58;21.13;;;16.00;99.90;;;;;;4963109;28;20066;-72
2022/09/25 11:32:45;;;;;;;20.80;19.80;;;16.10;99.90;;;;;;4974842;28;20052;-72
2022/09/25 11:35:28;;;;;;;19.75;18.65;;;16.20;99.90;;;;;;4950605;28;21291;-73
2022/09/25 11:41:29;;;;;;;20.83;19.67;;;16.10;99.90;;;;;;4945618;28;20826;-74
2022/09/25 11:44:16;;;;;;;21.85;20.60;;;15.90;99.90;;;;;;4972541;28;20543;-73
2022/09/25 11:47:04;;;;;;;21.85;20.42;;;15.60;99.90;;;;;;4966292;28;20058;-72
2022/09/25 11:49:35;;;;;;;23.23;21.65;;;15.20;99.90;;;;;;4951229;28;20042;-73
2022/09/25 11:52:19;;;;;;;22.15;20.65;;;15.00;99.90;;;;;;4972198;28;20042;-73
2022/09/25 11:55:13;;;;;;;22.13;20.73;;;15.00;99.90;;;;;;4949316;28;20360;-73
2022/09/25 11:57:58;;;;;;;22.25;20.58;;;15.10;99.90;;;;;;4947801;28;20533;-73
2022/09/25 12:00:37;;;;;;;21.17;19.90;;;15.10;99.90;;;;;;4972818;28;20308;-73
2022/09/25 12:03:39;;;;;;;23.13;21.77;;;14.90;99.90;;;;;;4961650;28;20070;-73
2022/09/25 12:06:21;;;;;;;20.60;19.60;;;14.80;99.90;;;;;;4965917;28;20052;-73
2022/09/25 12:09:07;;;;;;;20.58;19.08;;;14.80;99.90;;;;;;4969506;28;20054;-73
2022/09/25 12:11:44;;;;;;;22.13;20.55;;;14.90;99.90;;;;;;4950054;28;20429;-73
2022/09/25 12:14:16;;;;;;;20.95;19.48;;;14.80;99.90;;;;;;4970661;28;20138;-72
2022/09/25 12:16:58;;;;;;;20.27;18.88;;;15.00;99.90;;;;;;4953711;28;20042;-73
2022/09/25 12:19:59;;;;;;;20.55;19.40;;;15.00;99.90;;;;;;4950194;28;20132;-73
2022/09/25 12:22:50;;;;;;;22.40;21.00;;;15.10;99.90;;;;;;4949241;28;20042;-73
2022/09/25 12:25:26;;;;;;;20.45;19.27;;;15.10;99.90;;;;;;4950551;28;20046;-73
2022/09/25 12:28:01;;;;;;;21.05;19.60;;;15.00;99.90;;;;;;4953613;28;20053;-73
2022/09/25 12:30:46;;;;;;;20.65;19.45;;;15.00;99.90;;;;;;4964571;28;20046;-74
2022/09/25 12:33:26;;;;;;;22.38;20.90;;;15.00;99.90;;;;;;4963308;28;20370;-73
2022/09/25 12:36:07;;;;;;;21.58;20.27;;;14.80;99.90;;;;;;4955351;28;20046;-73
2022/09/25 12:38:55;;;;;;;20.98;19.60;;;14.80;99.90;;;;;;4969239;28;20129;-73
2022/09/25 12:41:42;;;;;;;20.83;19.35;;;14.80;99.90;;;;;;4963256;28;20054;-74
2022/09/25 12:44:21;;;;;;;20.27;19.17;;;14.60;99.90;;;;;;4952777;28;20191;-74
2022/09/25 12:47:01;;;;;;;19.45;18.25;;;14.60;99.90;;;;;;4959395;28;20406;-72
2022/09/25 12:49:37;;;;;;;18.65;17.55;;;14.50;99.90;;;;;;4944870;28;20074;-73
2022/09/25 12:52:19;;;;;;;18.92;17.83;;;14.50;99.90;;;;;;4964467;28;20043;-73
2022/09/25 12:55:24;;;;;;;19.55;18.08;;;14.40;99.90;;;;;;4975504;28;20576;-74
2022/09/25 12:58:01;;;;;;;21.85;20.02;;;14.20;99.90;;;;;;4976194;28;20525;-73
2022/09/25 13:00:31;;;;;;;21.50;20.30;;;14.30;99.90;;;;;;4970813;23;20050;-73
2022/09/25 13:03:18;;;;;;;20.70;19.33;;;14.30;99.90;;;;;;4984991;28;20069;-73
2022/09/25 13:05:51;;;;;;;20.73;19.52;;;14.40;99.90;;;;;;5003424;28;20065;-74
2022/09/25 13:08:19;;;;;;;21.15;19.67;;;14.30;99.90;;;;;;4992113;28;20491;-73
2022/09/25 13:10:58;;;;;;;20.80;19.65;;;14.50;99.90;;;;;;4993934;28;20049;-73
2022/09/25 13:13:28;;;;;;;20.33;19.25;;;14.50;99.90;;;;;;5006489;28;20168;-73
2022/09/25 13:15:58;;;;;;;20.58;19.38;;;14.60;99.90;;;;;;5008600;28;20052;-73
2022/09/25 13:18:27;;;;;;;20.92;19.40;;;14.70;99.90;;;;;;4988305;28;20051;-73